CheckWX is a tool to help pilots better visualize weather data.  It is not intended as a substitute for an official pre-flight weather briefing.

15:14:52 UTC

KFGX METAR
Fleming-Mason Airport
Flemingsburg, Kentucky, USA
Current

20 mins ago

KFGX 261455Z AUTO 27007KT 240V300 10SM CLR 28/20 A3011 RMK AO2 T02840198
Observed
May-26 @ 14:55 UTC
Wind
  • 270° at 7 KTS
Visibility
10 SM
Flight Rules
VFR
Cloud Levels
  • Clear skies
Temperature
28°C / 82°F
Dewpoint
20°C / 68°F
Heat Index
29°C / 85°F
Humidity
62%
Altimeter
30.11" Hg
Pressure
1019.62 hPa
Previous

40 mins ago

KFGX 261435Z AUTO 25008KT 220V280 10SM CLR 28/20 A3011 RMK AO2 T02750195
Observed
May-26 @ 14:35 UTC
Wind
  • 250° at 8 KTS
Visibility
10 SM
Flight Rules
VFR
Cloud Levels
  • Clear skies
Temperature
28°C / 82°F
Dewpoint
20°C / 68°F
Heat Index
29°C / 85°F
Humidity
62%
Altimeter
30.11" Hg
Pressure
1019.62 hPa
Previous

60 mins ago

KFGX 261415Z AUTO 26007KT 10SM SCT050 27/20 A3012 RMK AO2 T02690195
Observed
May-26 @ 14:15 UTC
Wind
  • 260° at 7 KTS
Visibility
10 SM
Flight Rules
VFR
Cloud Levels
  • Scattered at 5,000' AGL
Temperature
27°C / 81°F
Dewpoint
20°C / 68°F
Heat Index
29°C / 84°F
Humidity
66%
Altimeter
30.12" Hg
Pressure
1020.02 hPa